Time;durP1;ratioP1;P1;durP2;ratioP2;P2;SDS_P1;SDS_P2;PMS_P1;PMS_P2;Temp;Humidity;BMP_temperature;BMP_pressure;BME280_temperature;BME280_humidity;BME280_pressure;Samples;Min_cycle;Max_cycle;Signal;HPM_P1;HPM_P2
2021/04/01 00:01:41;;;;;;;60.63;40.80;;;10.10;78.70;;;;;;5053971;28;20178;-83
2021/04/01 00:04:16;;;;;;;62.43;39.03;;;10.10;79.10;;;;;;5054049;28;20196;-83
2021/04/01 00:06:49;;;;;;;60.83;38.27;;;10.10;78.60;;;;;;5054344;28;20602;-82
2021/04/01 00:09:18;;;;;;;62.33;40.03;;;10.10;79.10;;;;;;5036006;28;20202;-83
2021/04/01 00:11:44;;;;;;;64.73;40.93;;;10.00;79.70;;;;;;5053821;28;20171;-82
2021/04/01 00:14:17;;;;;;;70.13;42.90;;;9.90;80.40;;;;;;5053784;28;20183;-83
2021/04/01 00:16:57;;;;;;;68.30;43.83;;;9.80;80.80;;;;;;5036237;28;20180;-82
2021/04/01 00:19:25;;;;;;;69.27;41.83;;;9.80;81.20;;;;;;5053533;28;20671;-82
2021/04/01 00:21:55;;;;;;;63.90;43.10;;;9.70;81.00;;;;;;5035706;28;20180;-82
2021/04/01 00:24:28;;;;;;;68.83;43.40;;;9.80;80.60;;;;;;5053472;28;20290;-82
2021/04/01 00:27:01;;;;;;;67.60;42.83;;;9.80;80.40;;;;;;5053905;28;20194;-82
2021/04/01 00:29:34;;;;;;;67.07;43.53;;;9.80;80.10;;;;;;5035355;28;20211;-82
2021/04/01 00:32:03;;;;;;;70.37;44.83;;;9.90;80.10;;;;;;5053617;28;20530;-82
2021/04/01 00:34:29;;;;;;;73.87;44.13;;;9.90;79.20;;;;;;5035547;28;20207;-82
2021/04/01 00:37:02;;;;;;;74.57;46.83;;;9.90;79.30;;;;;;5035333;28;20271;-82
2021/04/01 00:39:34;;;;;;;77.63;45.50;;;10.00;79.40;;;;;;5035443;28;20223;-82
2021/04/01 00:42:06;;;;;;;76.10;45.53;;;9.90;79.00;;;;;;5053262;28;20690;-81
2021/04/01 00:44:39;;;;;;;71.90;43.80;;;9.80;80.20;;;;;;5053255;28;20289;-82
2021/04/01 00:47:08;;;;;;;68.60;44.40;;;9.70;80.50;;;;;;5053332;28;20227;-82
2021/04/01 00:49:40;;;;;;;66.63;41.00;;;9.70;80.40;;;;;;5035223;28;20192;-82
2021/04/01 00:52:10;;;;;;;69.03;42.63;;;9.80;79.70;;;;;;5053003;28;20174;-82
2021/04/01 00:54:42;;;;;;;67.30;43.27;;;9.70;80.80;;;;;;5053163;28;20260;-82
2021/04/01 00:57:14;;;;;;;72.50;44.33;;;9.60;82.00;;;;;;5035203;28;20189;-82
2021/04/01 00:59:51;;;;;;;79.00;44.83;;;9.60;82.20;;;;;;5053241;28;20551;-82
2021/04/01 01:02:24;;;;;;;70.67;45.07;;;9.60;82.00;;;;;;5053444;28;20643;-82
2021/04/01 01:04:57;;;;;;;80.60;46.70;;;9.70;81.50;;;;;;5035034;28;20201;-82
2021/04/01 01:07:30;;;;;;;81.07;49.30;;;9.80;80.90;;;;;;5053087;28;20644;-83
2021/04/01 01:10:04;;;;;;;73.07;47.07;;;9.80;81.10;;;;;;5053074;28;20175;-82
2021/04/01 01:12:39;;;;;;;66.60;45.37;;;9.80;81.10;;;;;;5034950;28;20220;-83
2021/04/01 01:15:07;;;;;;;63.97;44.73;;;9.90;80.80;;;;;;5053430;28;20178;-82
2021/04/01 01:17:36;;;;;;;74.30;48.10;;;9.90;79.90;;;;;;5052865;28;20192;-83
2021/04/01 01:20:10;;;;;;;79.90;48.77;;;9.90;79.90;;;;;;5053060;28;20175;-82
2021/04/01 01:22:48;;;;;;;74.27;45.57;;;10.00;79.80;;;;;;5034926;28;20200;-83
2021/04/01 01:25:15;;;;;;;68.50;46.80;;;10.00;79.50;;;;;;5052891;28;20668;-82
2021/04/01 01:27:41;;;;;;;72.10;46.27;;;10.00;78.50;;;;;;5034964;28;20283;-83
2021/04/01 01:30:19;;;;;;;72.13;47.30;;;10.00;78.60;;;;;;5034883;28;20195;-82
2021/04/01 01:32:48;;;;;;;74.77;47.73;;;10.00;76.60;;;;;;5052769;28;20182;-82
2021/04/01 01:35:31;;;;;;;76.90;44.97;;;10.10;76.90;;;;;;5034823;28;20180;-81
2021/04/01 01:38:00;;;;;;;65.87;43.93;;;10.20;76.30;;;;;;5034745;28;20291;-82
2021/04/01 01:40:36;;;;;;;66.50;45.17;;;10.20;75.60;;;;;;5052844;28;20176;-82
2021/04/01 01:43:09;;;;;;;68.83;45.37;;;10.20;75.30;;;;;;5052819;28;20254;-82
2021/04/01 01:45:43;;;;;;;72.03;45.37;;;10.20;74.10;;;;;;5037656;28;20690;-82
2021/04/01 01:48:10;;;;;;;74.10;45.80;;;10.20;71.80;;;;;;5056778;28;20195;-81
2021/04/01 01:50:43;;;;;;;68.50;44.97;;;10.30;70.30;;;;;;5056356;28;20176;-82
2021/04/01 01:53:18;;;;;;;70.50;46.30;;;10.30;69.70;;;;;;5056303;28;20719;-83
2021/04/01 01:55:53;;;;;;;66.80;44.27;;;10.30;69.40;;;;;;5038454;28;20175;-82
2021/04/01 01:58:25;;;;;;;62.60;44.83;;;10.30;70.20;;;;;;5056361;28;20547;-82
2021/04/01 02:00:54;;;;;;;71.50;44.60;;;10.30;71.30;;;;;;5056149;28;20260;-82
2021/04/01 02:03:29;;;;;;;65.17;44.47;;;10.30;71.70;;;;;;5038339;28;20214;-82
2021/04/01 02:06:02;;;;;;;64.33;44.73;;;10.30;71.20;;;;;;5055930;28;20203;-82
2021/04/01 02:08:34;;;;;;;65.33;43.47;;;10.30;71.00;;;;;;5056607;28;20184;-83
2021/04/01 02:11:06;;;;;;;66.27;44.20;;;10.30;72.30;;;;;;5056182;28;20195;-82
2021/04/01 02:13:42;;;;;;;64.83;44.97;;;10.30;72.80;;;;;;5056183;28;20191;-84
2021/04/01 02:16:15;;;;;;;61.47;43.27;;;10.30;72.50;;;;;;5056331;28;20156;-82
2021/04/01 02:18:50;;;;;;;66.53;45.30;;;10.30;73.10;;;;;;5079259;22;20223;-87
2021/04/01 02:21:24;;;;;;;65.73;43.77;;;10.30;72.80;;;;;;5038208;28;20259;-87
2021/04/01 02:23:56;;;;;;;65.97;43.97;;;10.30;72.90;;;;;;5037987;28;20540;-87
2021/04/01 02:26:29;;;;;;;67.23;45.77;;;10.20;73.50;;;;;;5037850;28;20206;-87
2021/04/01 02:28:57;;;;;;;69.93;46.30;;;10.20;73.60;;;;;;5037557;28;20279;-87
2021/04/01 02:31:30;;;;;;;72.03;46.40;;;10.10;74.50;;;;;;5037740;28;20176;-87
2021/04/01 02:34:04;;;;;;;67.23;46.00;;;10.10;74.60;;;;;;5037635;28;20176;-87
2021/04/01 02:36:39;;;;;;;71.03;45.60;;;10.20;74.60;;;;;;5055692;28;20164;-87
2021/04/01 02:39:14;;;;;;;68.53;44.83;;;10.20;74.50;;;;;;5055822;28;20191;-87
2021/04/01 02:41:44;;;;;;;71.10;46.70;;;10.20;74.50;;;;;;5055256;28;20168;-87
2021/04/01 02:44:14;;;;;;;70.33;47.70;;;10.20;74.10;;;;;;5055240;28;20196;-87
2021/04/01 02:46:44;;;;;;;77.17;45.97;;;10.20;72.40;;;;;;5037853;28;20589;-87
2021/04/01 02:49:09;;;;;;;70.70;43.87;;;10.30;70.80;;;;;;5037233;28;20188;-87
2021/04/01 02:51:44;;;;;;;72.57;45.70;;;10.30;69.50;;;;;;5037651;28;20229;-87
2021/04/01 02:54:10;;;;;;;74.17;48.17;;;10.50;69.30;;;;;;5037224;28;20211;-87
2021/04/01 02:56:41;;;;;;;71.53;47.87;;;10.40;70.70;;;;;;5037230;28;20179;-87
2021/04/01 02:59:14;;;;;;;77.43;47.13;;;10.30;71.20;;;;;;5055383;28;20204;-87
2021/04/01 03:01:50;;;;;;;66.23;43.20;;;10.30;70.90;;;;;;5037064;28;20587;-87
2021/04/01 03:04:24;;;;;;;77.10;47.63;;;10.30;70.50;;;;;;5036992;28;20207;-87
2021/04/01 03:07:00;;;;;;;65.70;44.23;;;10.30;71.30;;;;;;5037380;28;20271;-87
2021/04/01 03:09:34;;;;;;;71.43;45.80;;;10.20;71.50;;;;;;5037071;28;20192;-87
2021/04/01 03:12:04;;;;;;;65.13;43.43;;;10.10;71.50;;;;;;5037180;28;20226;-87
2021/04/01 03:14:30;;;;;;;69.77;46.10;;;10.10;71.30;;;;;;5054933;28;20176;-87
2021/04/01 03:17:01;;;;;;;69.30;46.13;;;10.00;70.60;;;;;;5036801;28;20174;-87
2021/04/01 03:19:34;;;;;;;68.23;44.13;;;10.00;69.30;;;;;;5036621;28;20216;-87
2021/04/01 03:22:08;;;;;;;71.10;45.00;;;10.00;69.10;;;;;;5037386;28;20593;-87
2021/04/01 03:24:36;;;;;;;71.30;45.83;;;10.00;69.10;;;;;;5037414;28;20206;-87
2021/04/01 03:27:12;;;;;;;68.30;45.17;;;10.00;68.50;;;;;;5036640;28;20177;-87
2021/04/01 03:29:44;;;;;;;70.97;45.83;;;10.00;68.90;;;;;;5036552;28;20195;-87
2021/04/01 03:32:36;;;;;;;70.77;45.50;;;9.90;68.90;;;;;;5037369;28;20524;-87
2021/04/01 03:35:08;;;;;;;67.87;46.73;;;9.90;68.90;;;;;;5036399;28;20180;-87
2021/04/01 03:37:42;;;;;;;79.57;49.97;;;9.90;69.10;;;;;;5036701;28;20212;-87
2021/04/01 03:40:11;;;;;;;74.80;49.10;;;9.90;68.60;;;;;;5054215;28;20188;-87
2021/04/01 03:42:43;;;;;;;77.40;49.83;;;10.00;68.70;;;;;;5036374;28;20180;-87
2021/04/01 03:45:16;;;;;;;83.67;51.00;;;9.90;69.30;;;;;;5036048;28;20207;-88
2021/04/01 03:47:48;;;;;;;85.10;53.30;;;9.90;69.70;;;;;;5036094;28;20644;-87
2021/04/01 03:50:15;;;;;;;84.07;54.47;;;9.80;69.80;;;;;;5053946;28;20172;-87
2021/04/01 03:52:48;;;;;;;91.77;54.87;;;9.80;69.50;;;;;;5036343;28;20172;-87
2021/04/01 03:58:01;;;;;;;81.83;54.30;;;9.80;69.30;;;;;;5053913;28;20156;-87
2021/04/01 04:00:34;;;;;;;83.83;55.73;;;9.80;69.40;;;;;;5035885;28;20263;-87
2021/04/01 04:05:54;;;;;;;83.30;55.33;;;9.80;69.70;;;;;;5054057;28;20184;-87
2021/04/01 04:16:42;;;;;;;91.43;58.83;;;9.80;70.00;;;;;;5053819;28;20179;-87
2021/04/01 04:19:14;;;;;;;83.47;56.73;;;9.70;70.30;;;;;;5035403;28;20699;-87
2021/04/01 04:21:49;;;;;;;91.40;56.67;;;9.70;70.20;;;;;;5035564;28;20171;-87
2021/04/01 04:24:22;;;;;;;87.13;57.20;;;9.70;70.40;;;;;;5053472;28;20222;-87
2021/04/01 04:26:55;;;;;;;91.67;56.63;;;9.70;70.50;;;;;;5053704;28;20175;-87
2021/04/01 04:29:24;;;;;;;88.17;57.20;;;9.70;70.40;;;;;;5035917;28;20609;-87
2021/04/01 04:31:55;;;;;;;90.80;58.23;;;9.70;70.60;;;;;;5035336;28;20211;-87
2021/04/01 04:34:24;;;;;;;95.10;60.97;;;9.60;71.30;;;;;;5035460;28;20558;-87
2021/04/01 04:36:58;;;;;;;90.17;58.63;;;9.60;71.40;;;;;;5035560;28;20200;-87
2021/04/01 04:39:32;;;;;;;91.43;59.53;;;9.60;71.30;;;;;;5053161;28;20191;-87
2021/04/01 04:41:58;;;;;;;95.33;62.37;;;9.60;71.10;;;;;;5053410;28;20179;-87
2021/04/01 04:44:34;;;;;;;100.13;62.57;;;9.60;71.00;;;;;;5035417;28;20219;-87
2021/04/01 04:47:06;;;;;;;98.97;63.10;;;9.60;71.00;;;;;;5035785;28;20168;-87
2021/04/01 04:49:36;;;;;;;95.57;63.07;;;9.60;70.40;;;;;;5035574;28;20196;-87
2021/04/01 04:52:10;;;;;;;98.23;63.23;;;9.50;70.60;;;;;;5035603;28;20172;-87
2021/04/01 04:54:39;;;;;;;101.20;65.20;;;9.50;70.60;;;;;;5053079;28;20524;-87
2021/04/01 04:57:23;;;;;;;111.17;68.57;;;9.40;71.20;;;;;;5053372;28;20195;-87
2021/04/01 05:00:11;;;;;;;105.37;66.07;;;9.30;71.50;;;;;;5035110;28;20679;-87
2021/04/01 05:05:33;;;;;;;105.50;63.13;;;9.10;72.40;;;;;;5052964;28;20199;-87
2021/04/01 05:08:08;;;;;;;102.50;65.07;;;9.00;72.60;;;;;;5034910;28;20248;-87
2021/04/01 05:10:35;;;;;;;111.17;67.33;;;9.00;73.70;;;;;;5035883;28;20167;-87
2021/04/01 05:13:14;;;;;;;115.30;68.67;;;9.00;74.60;;;;;;5035431;28;20203;-87
2021/04/01 05:15:51;;;;;;;104.30;66.03;;;8.90;74.80;;;;;;5053395;28;20722;-87
2021/04/01 05:18:32;;;;;;;111.17;70.87;;;9.00;74.60;;;;;;5053199;28;20234;-87
2021/04/01 05:21:03;;;;;;;123.17;72.60;;;9.00;74.70;;;;;;5039154;28;20168;-87
2021/04/01 05:23:39;;;;;;;116.93;71.93;;;9.00;75.30;;;;;;5039196;28;20175;-87
2021/04/01 05:29:02;;;;;;;116.10;72.20;;;9.00;75.60;;;;;;5056621;28;20180;-87
2021/04/01 05:31:38;;;;;;;116.00;70.77;;;9.00;75.10;;;;;;5056839;28;20259;-87
2021/04/01 05:34:11;;;;;;;118.93;71.50;;;9.00;75.30;;;;;;5056515;28;20179;-87
2021/04/01 05:36:45;;;;;;;121.93;74.67;;;9.00;75.30;;;;;;5038626;28;20180;-87
2021/04/01 05:39:33;;;;;;;118.03;74.00;;;9.00;75.60;;;;;;5038446;28;20215;-87
2021/04/01 05:42:08;;;;;;;121.57;75.27;;;9.10;75.60;;;;;;5056568;28;20176;-87
2021/04/01 05:44:43;;;;;;;121.93;75.33;;;9.10;75.50;;;;;;5056379;28;20595;-87
2021/04/01 05:47:26;;;;;;;126.07;79.13;;;9.10;75.90;;;;;;5038447;28;20180;-87
2021/04/01 05:50:16;;;;;;;119.43;75.00;;;9.20;76.10;;;;;;5039522;28;20532;-87
2021/04/01 06:01:53;;;;;;;128.90;74.03;;;9.30;75.70;;;;;;5056181;28;20167;-87
2021/04/01 06:05:00;;;;;;;132.77;74.20;;;9.30;75.90;;;;;;5056052;28;20257;-87
2021/04/01 06:07:30;;;;;;;131.03;73.70;;;9.30;75.80;;;;;;5053043;28;20177;-87
2021/04/01 06:09:58;;;;;;;129.80;74.67;;;9.30;75.50;;;;;;5038252;28;20203;-87
2021/04/01 06:12:34;;;;;;;127.83;74.30;;;9.30;75.80;;;;;;5037993;28;20172;-87
2021/04/01 06:15:11;;;;;;;130.17;73.13;;;9.40;75.30;;;;;;5056163;28;20184;-87
2021/04/01 06:18:01;;;;;;;128.33;74.57;;;9.40;75.60;;;;;;5037828;28;20183;-87
2021/04/01 06:20:33;;;;;;;125.83;73.53;;;9.40;75.60;;;;;;5038009;28;20259;-87
2021/04/01 06:23:05;;;;;;;123.70;75.30;;;9.40;75.70;;;;;;5037734;28;20231;-88
2021/04/01 06:25:46;;;;;;;129.43;74.60;;;9.40;75.50;;;;;;5055620;28;20200;-86
2021/04/01 06:28:27;;;;;;;122.90;75.17;;;9.40;75.70;;;;;;5037673;28;20192;-86
2021/04/01 06:31:00;;;;;;;130.13;77.10;;;9.30;76.50;;;;;;5037372;28;20172;-86
2021/04/01 06:33:42;;;;;;;136.60;76.37;;;9.30;76.50;;;;;;5037524;28;20703;-86
2021/04/01 06:36:20;;;;;;;134.97;77.43;;;9.30;76.60;;;;;;5055717;28;20523;-86
2021/04/01 06:38:52;;;;;;;130.33;75.43;;;9.30;76.80;;;;;;5055464;28;20191;-86
2021/04/01 06:41:26;;;;;;;136.93;75.27;;;9.30;76.90;;;;;;5037369;28;20180;-86
2021/04/01 06:44:04;;;;;;;136.60;78.50;;;9.30;77.30;;;;;;5037288;28;20175;-86
2021/04/01 06:46:47;;;;;;;135.17;77.27;;;9.20;78.40;;;;;;5037420;28;20188;-87
2021/04/01 06:52:18;;;;;;;136.50;74.17;;;9.30;78.40;;;;;;5055625;28;20535;-88
2021/04/01 06:55:44;;;;;;;131.37;75.90;;;9.30;79.30;;;;;;5037626;28;20203;-88
2021/04/01 06:58:01;;;;;;;138.83;76.23;;;9.30;79.60;;;;;;5044513;28;20183;-88
2021/04/01 07:03:27;;;;;;;149.33;80.47;;;9.30;80.20;;;;;;5055110;28;20637;-88
2021/04/01 07:06:03;;;;;;;139.47;79.27;;;9.20;80.90;;;;;;5037387;28;20195;-88
2021/04/01 07:11:42;;;;;;;144.83;77.77;;;9.30;80.50;;;;;;5055155;28;20167;-88
2021/04/01 07:14:18;;;;;;;141.13;76.97;;;9.40;80.90;;;;;;5037340;28;20178;-88
2021/04/01 07:17:01;;;;;;;151.93;77.20;;;9.40;81.20;;;;;;5037057;28;20176;-88
2021/04/01 07:19:55;;;;;;;138.77;73.07;;;9.50;81.30;;;;;;5037005;28;20216;-87
2021/04/01 07:45:40;;;;;;;76.10;43.57;;;9.60;78.90;;;;;;5054311;28;20256;-88
2021/04/01 07:48:03;;;;;;;64.20;38.83;;;9.70;79.10;;;;;;5053005;28;20183;-87
2021/04/01 07:50:43;;;;;;;53.90;33.73;;;9.80;79.30;;;;;;5036056;28;20221;-86
2021/04/01 07:53:29;;;;;;;54.40;31.60;;;9.80;79.00;;;;;;5036316;28;20175;-87
2021/04/01 07:56:22;;;;;;;53.70;30.40;;;9.80;79.00;;;;;;5036117;28;20184;-86
2021/04/01 07:59:19;;;;;;;52.33;29.37;;;9.80;79.40;;;;;;5036234;28;20291;-88
2021/04/01 08:02:08;;;;;;;54.33;27.77;;;9.80;79.20;;;;;;5036086;28;20176;-86
2021/04/01 08:04:42;;;;;;;45.57;24.87;;;9.90;79.40;;;;;;5035858;28;20196;-87
2021/04/01 08:07:16;;;;;;;41.13;25.20;;;10.00;78.90;;;;;;5053796;28;20243;-86
2021/04/01 08:09:53;;;;;;;39.80;24.30;;;10.00;78.60;;;;;;5035833;28;20734;-87
2021/04/01 08:12:30;;;;;;;35.33;21.33;;;9.90;78.70;;;;;;5054426;28;20229;-87
2021/04/01 08:15:06;;;;;;;39.40;22.17;;;10.00;78.50;;;;;;5035914;28;20182;-88
2021/04/01 08:17:46;;;;;;;35.40;22.33;;;10.00;78.50;;;;;;5036728;28;20188;-87
2021/04/01 08:20:26;;;;;;;35.97;21.83;;;10.00;79.00;;;;;;5080738;22;20642;-84
2021/04/01 08:23:10;;;;;;;36.17;21.23;;;10.20;79.40;;;;;;5038489;28;20174;-82
2021/04/01 08:25:48;;;;;;;31.10;18.77;;;10.30;79.10;;;;;;5040717;28;20225;-84
2021/04/01 08:36:11;;;;;;;30.80;17.43;;;10.40;77.90;;;;;;5058186;28;20176;-82
2021/04/01 08:38:42;;;;;;;30.63;15.37;;;10.50;77.90;;;;;;5059927;28;20202;-82
2021/04/01 08:41:36;;;;;;;33.70;15.63;;;10.70;78.30;;;;;;5040211;28;20250;-82
2021/04/01 08:44:17;;;;;;;21.77;12.80;;;10.80;77.80;;;;;;5042426;28;20305;-82
2021/04/01 08:47:04;;;;;;;20.50;11.47;;;10.80;76.80;;;;;;5060106;28;20153;-83
2021/04/01 08:49:51;;;;;;;32.70;12.43;;;10.70;76.60;;;;;;5038542;28;20192;-82
2021/04/01 08:52:37;;;;;;;17.07;9.03;;;10.70;76.30;;;;;;5035620;28;20168;-81
2021/04/01 08:55:15;;;;;;;21.23;10.17;;;10.80;75.90;;;;;;5053078;28;20167;-81
2021/04/01 08:57:55;;;;;;;15.97;8.87;;;10.90;76.50;;;;;;5035272;28;20172;-80
2021/04/01 09:00:27;;;;;;;16.27;8.50;;;11.20;76.60;;;;;;5053156;28;20198;-82
2021/04/01 09:02:56;;;;;;;16.63;7.63;;;11.20;75.80;;;;;;5053315;28;20164;-81
2021/04/01 09:05:23;;;;;;;14.57;7.27;;;11.20;75.50;;;;;;5035115;28;20635;-82
2021/04/01 09:07:57;;;;;;;14.00;5.70;;;11.30;74.90;;;;;;5035395;28;20529;-84
2021/04/01 09:10:35;;;;;;;13.77;5.13;;;11.30;74.40;;;;;;5036000;28;20206;-82
2021/04/01 09:13:19;;;;;;;10.20;4.20;;;11.20;74.80;;;;;;5034866;28;20171;-81
2021/04/01 09:18:33;;;;;;;10.57;4.20;;;11.50;75.20;;;;;;5052498;28;20235;-83
2021/04/01 09:21:05;;;;;;;14.30;4.97;;;11.50;75.40;;;;;;5035705;28;20182;-82
2021/04/01 09:23:37;;;;;;;15.50;5.30;;;11.60;75.60;;;;;;5034938;28;20172;-81
2021/04/01 09:26:14;;;;;;;16.57;4.80;;;11.70;74.80;;;;;;5053115;28;20161;-81
2021/04/01 09:28:47;;;;;;;15.77;5.20;;;11.70;74.80;;;;;;5034760;28;20203;-81
2021/04/01 09:31:18;;;;;;;17.17;4.73;;;11.70;75.30;;;;;;5034778;28;20180;-81
2021/04/01 09:33:50;;;;;;;18.20;5.30;;;11.50;75.00;;;;;;5052705;28;20660;-81
2021/04/01 09:36:22;;;;;;;13.87;5.17;;;11.30;75.40;;;;;;5052609;28;20196;-81
2021/04/01 09:39:06;;;;;;;17.97;4.90;;;11.10;76.80;;;;;;5034567;28;20192;-81
2021/04/01 09:41:41;;;;;;;18.20;5.40;;;11.00;76.50;;;;;;5052599;28;20167;-81
2021/04/01 09:44:14;;;;;;;17.17;4.90;;;11.00;76.10;;;;;;5034666;28;20606;-81
2021/04/01 09:47:03;;;;;;;10.30;4.53;;;10.90;76.50;;;;;;5052914;28;20168;-82
2021/04/01 09:49:41;;;;;;;11.37;4.10;;;10.70;76.40;;;;;;5034748;28;20608;-82
2021/04/01 09:52:07;;;;;;;10.70;4.53;;;10.70;76.60;;;;;;5052439;28;20620;-82
2021/04/01 09:54:41;;;;;;;9.50;3.90;;;10.70;76.90;;;;;;5052420;28;20710;-81
2021/04/01 09:57:14;;;;;;;19.10;5.00;;;10.60;76.30;;;;;;5052622;28;20145;-82
2021/04/01 09:59:51;;;;;;;11.40;4.53;;;10.50;76.20;;;;;;5052289;28;20203;-82
2021/04/01 10:02:34;;;;;;;13.33;4.90;;;10.50;76.60;;;;;;5052376;28;20168;-82
2021/04/01 10:05:06;;;;;;;9.40;4.83;;;10.40;76.50;;;;;;5052944;28;20176;-82
2021/04/01 10:07:40;;;;;;;8.80;4.63;;;10.50;76.80;;;;;;5056057;28;20237;-82
2021/04/01 10:10:07;;;;;;;11.80;5.20;;;10.40;77.30;;;;;;5055886;28;20212;-81
2021/04/01 10:12:44;;;;;;;11.47;3.87;;;10.30;78.00;;;;;;5055893;28;20611;-84
2021/04/01 10:15:16;;;;;;;10.13;4.07;;;10.10;78.30;;;;;;5038083;28;20195;-82
2021/04/01 10:17:47;;;;;;;8.47;3.73;;;10.00;77.90;;;;;;5037937;28;20178;-82
2021/04/01 10:20:20;;;;;;;8.50;3.80;;;9.80;77.90;;;;;;5037959;28;20573;-81
2021/04/01 10:22:49;;;;;;;6.00;4.00;;;9.60;78.90;;;;;;5037803;28;20168;-82
2021/04/01 10:25:27;;;;;;;7.87;3.87;;;9.50;79.40;;;;;;5055690;28;20172;-82
2021/04/01 10:30:54;;;;;;;9.27;3.60;;;9.50;78.60;;;;;;5051451;28;20212;-82
2021/04/01 10:33:28;;;;;;;6.13;3.50;;;9.60;79.30;;;;;;5056664;28;20664;-83
2021/04/01 10:36:06;;;;;;;8.80;3.90;;;9.50;78.50;;;;;;5056222;28;20202;-82
2021/04/01 10:38:35;;;;;;;12.23;4.43;;;9.70;78.40;;;;;;5056138;28;20198;-82
2021/04/01 10:41:11;;;;;;;6.77;4.03;;;9.80;77.90;;;;;;5038415;28;20529;-82
2021/04/01 10:43:44;;;;;;;10.67;4.43;;;9.80;77.10;;;;;;5038088;28;20714;-82
2021/04/01 10:46:20;;;;;;;9.73;4.10;;;9.80;77.10;;;;;;5038222;28;20651;-82
2021/04/01 10:48:55;;;;;;;6.87;3.87;;;9.80;77.10;;;;;;5055439;28;20231;-82
2021/04/01 10:51:32;;;;;;;8.73;4.37;;;9.80;77.10;;;;;;5039170;28;20189;-82
2021/04/01 10:54:07;;;;;;;8.20;3.80;;;9.80;77.90;;;;;;5037642;28;20184;-82
2021/04/01 10:56:44;;;;;;;6.60;3.50;;;9.80;77.40;;;;;;5055639;28;20608;-82
2021/04/01 10:59:11;;;;;;;7.03;4.20;;;9.80;76.30;;;;;;5055688;28;20202;-82
2021/04/01 11:01:41;;;;;;;6.50;3.77;;;9.80;76.30;;;;;;5037648;28;20172;-82
2021/04/01 11:04:14;;;;;;;5.37;3.73;;;9.80;77.00;;;;;;5055802;28;20540;-83
2021/04/01 11:06:46;;;;;;;4.63;3.50;;;9.80;77.50;;;;;;5055879;28;20231;-83
2021/04/01 11:09:19;;;;;;;5.10;3.80;;;9.80;77.30;;;;;;5055882;28;20188;-83
2021/04/01 11:12:19;;;;;;;7.20;4.07;;;10.00;76.80;;;;;;5037805;28;20645;-83
2021/04/01 11:14:52;;;;;;;5.40;3.57;;;10.10;76.20;;;;;;5054777;28;20216;-82
2021/04/01 11:17:24;;;;;;;4.47;3.83;;;10.40;74.40;;;;;;5053780;28;20160;-82
2021/04/01 11:20:01;;;;;;;4.53;3.40;;;10.50;74.80;;;;;;5037033;28;20208;-82
2021/04/01 11:22:34;;;;;;;3.83;3.13;;;10.70;73.30;;;;;;5037431;28;20180;-83
2021/04/01 11:25:20;;;;;;;4.73;3.40;;;10.70;72.60;;;;;;5037680;28;20640;-83
2021/04/01 11:27:55;;;;;;;6.83;3.50;;;10.80;73.00;;;;;;5055670;28;20650;-82
2021/04/01 11:30:43;;;;;;;6.47;3.40;;;11.30;72.40;;;;;;5056134;28;20567;-82
2021/04/01 11:33:21;;;;;;;4.13;3.03;;;11.60;71.90;;;;;;5056513;28;20564;-83
2021/04/01 11:36:11;;;;;;;4.23;3.50;;;11.70;68.30;;;;;;5056182;28;20668;-82
2021/04/01 11:38:43;;;;;;;3.40;2.97;;;12.00;70.10;;;;;;5036469;28;20672;-83
2021/04/01 11:41:15;;;;;;;4.20;2.87;;;11.80;67.20;;;;;;5054550;28;20647;-83
2021/04/01 11:43:48;;;;;;;4.93;3.10;;;11.80;68.40;;;;;;5054708;28;20682;-83
2021/04/01 11:46:24;;;;;;;3.17;2.87;;;11.90;67.20;;;;;;5056372;28;20167;-83
2021/04/01 11:48:55;;;;;;;4.07;3.03;;;11.80;67.30;;;;;;5036880;28;20222;-83
2021/04/01 11:51:26;;;;;;;3.87;2.53;;;12.00;66.10;;;;;;5037364;28;20215;-84
2021/04/01 11:53:59;;;;;;;4.63;2.37;;;12.20;63.50;;;;;;5054419;28;20560;-82
2021/04/01 11:56:38;;;;;;;4.03;2.63;;;12.40;64.40;;;;;;5054008;28;20207;-82
2021/04/01 11:59:20;;;;;;;4.23;2.67;;;12.60;62.70;;;;;;5054014;28;20195;-83
2021/04/01 12:02:05;;;;;;;7.83;2.90;;;12.50;62.60;;;;;;5054369;28;20180;-81
2021/04/01 12:04:44;;;;;;;2.53;2.33;;;12.40;63.90;;;;;;5054955;28;20165;-79
2021/04/01 12:07:14;;;;;;;2.60;2.40;;;12.40;61.80;;;;;;5055291;28;20210;-80
2021/04/01 12:09:48;;;;;;;6.90;3.13;;;12.00;63.90;;;;;;5054111;28;20203;-80
2021/04/01 12:12:32;;;;;;;2.57;2.33;;;11.70;66.30;;;;;;5054163;28;20174;-80
2021/04/01 12:15:03;;;;;;;3.00;2.40;;;11.60;64.50;;;;;;5053929;28;20203;-80
2021/04/01 12:17:43;;;;;;;2.67;2.37;;;11.70;63.80;;;;;;5054059;28;20176;-79
2021/04/01 12:20:19;;;;;;;2.27;2.07;;;11.70;63.60;;;;;;5054189;28;20783;-79
2021/04/01 12:22:54;;;;;;;3.50;2.30;;;11.70;65.10;;;;;;5036393;28;20616;-79
2021/04/01 12:25:29;;;;;;;2.37;2.17;;;11.70;64.80;;;;;;5036159;28;20704;-79
2021/04/01 12:28:06;;;;;;;2.90;2.50;;;11.60;65.50;;;;;;5053838;28;20184;-79
2021/04/01 12:30:41;;;;;;;2.80;2.37;;;11.60;65.80;;;;;;5054065;28;20188;-79
2021/04/01 12:33:20;;;;;;;6.57;2.57;;;11.60;66.40;;;;;;5053663;28;20179;-79
2021/04/01 12:36:00;;;;;;;2.80;2.17;;;11.50;67.90;;;;;;5054126;28;20190;-79
2021/04/01 12:38:37;;;;;;;2.33;2.10;;;11.40;68.50;;;;;;5053746;28;20702;-79
2021/04/01 12:41:31;;;;;;;3.87;2.40;;;11.30;68.90;;;;;;5054112;28;20147;-79
2021/04/01 12:44:02;;;;;;;3.17;1.93;;;11.30;67.90;;;;;;5054015;28;20203;-81
2021/04/01 12:46:42;;;;;;;3.60;1.90;;;11.10;68.50;;;;;;5036325;28;20184;-80
2021/04/01 12:49:14;;;;;;;2.47;2.00;;;11.20;68.90;;;;;;5055054;28;20223;-81
2021/04/01 12:51:47;;;;;;;2.07;1.87;;;11.20;68.90;;;;;;5055305;28;20213;-82
2021/04/01 12:54:15;;;;;;;3.47;2.40;;;11.10;69.30;;;;;;5037308;28;20597;-80
2021/04/01 12:56:52;;;;;;;3.40;2.37;;;11.20;68.40;;;;;;5053978;28;20176;-80
2021/04/01 12:59:36;;;;;;;3.33;1.90;;;11.30;67.20;;;;;;5053466;28;20566;-79
2021/04/01 13:04:37;;;;;;;3.00;2.20;;;10.70;68.60;;;;;;5053715;28;20254;-79
2021/04/01 13:12:39;;;;;;;3.43;1.80;;;9.90;71.90;;;;;;5054224;28;20750;-79
2021/04/01 13:15:08;;;;;;;4.53;1.87;;;10.00;71.30;;;;;;5053187;28;20199;-80
2021/04/01 13:17:42;;;;;;;2.93;2.17;;;10.20;69.40;;;;;;5053383;28;20183;-79
2021/04/01 13:20:14;;;;;;;2.43;1.60;;;10.20;69.30;;;;;;5053649;28;20336;-79
2021/04/01 13:22:58;;;;;;;5.27;1.77;;;10.20;69.20;;;;;;5053337;28;20233;-79
2021/04/01 13:25:33;;;;;;;3.13;1.60;;;10.20;68.00;;;;;;5053806;28;20287;-79
2021/04/01 13:28:13;;;;;;;6.43;2.07;;;10.30;68.60;;;;;;5053177;28;20633;-79
2021/04/01 13:30:39;;;;;;;2.50;1.60;;;9.90;71.00;;;;;;5054269;28;20160;-80
2021/04/01 13:35:43;;;;;;;2.87;1.67;;;9.70;68.10;;;;;;5054303;28;20192;-80
2021/04/01 13:40:39;;;;;;;1.93;1.60;;;9.80;67.40;;;;;;5055836;28;20177;-82
2021/04/01 13:43:06;;;;;;;3.10;1.50;;;9.90;68.30;;;;;;5058390;28;20163;-80
2021/04/01 13:45:32;;;;;;;3.60;1.80;;;10.00;67.10;;;;;;5058379;28;20643;-79
2021/04/01 13:48:04;;;;;;;3.10;1.67;;;10.00;67.70;;;;;;5058484;28;20317;-82
2021/04/01 13:50:32;;;;;;;2.77;1.30;;;10.00;68.50;;;;;;5040105;28;20180;-80
2021/04/01 13:55:27;;;;;;;4.70;1.60;;;10.00;68.70;;;;;;5058010;28;20212;-79
2021/04/01 14:09:03;;;;;;;3.63;1.97;;;9.80;68.40;;;;;;5057430;28;20226;-79
2021/04/01 14:11:29;;;;;;;1.73;1.53;;;10.00;68.10;;;;;;5057131;28;20165;-80
2021/04/01 14:13:56;;;;;;;3.17;1.70;;;10.10;68.00;;;;;;5038912;28;20194;-79
2021/04/01 14:16:21;;;;;;;2.97;1.70;;;10.10;66.70;;;;;;5056520;28;20199;-79
2021/04/01 14:18:50;;;;;;;2.40;1.80;;;10.10;66.50;;;;;;5080001;22;20227;-82
2021/04/01 14:21:19;;;;;;;3.40;1.70;;;10.10;66.20;;;;;;5056115;28;20218;-82
2021/04/01 14:23:46;;;;;;;2.73;1.43;;;10.40;68.10;;;;;;5038028;28;20637;-82
2021/04/01 14:28:40;;;;;;;6.87;1.70;;;9.90;66.40;;;;;;5056004;28;20178;-82
2021/04/01 14:31:06;;;;;;;3.43;1.63;;;9.90;67.40;;;;;;5037748;28;20179;-82
2021/04/01 14:33:32;;;;;;;5.17;1.50;;;9.80;67.20;;;;;;5055911;28;20176;-82
2021/04/01 14:35:59;;;;;;;3.77;1.53;;;9.90;68.00;;;;;;5055464;28;20250;-83
2021/04/01 14:38:34;;;;;;;9.60;2.70;;;10.10;68.00;;;;;;5055485;28;20662;-82
2021/04/01 14:43:47;;;;;;;3.33;1.60;;;10.00;68.30;;;;;;5055673;28;20171;-83
2021/04/01 14:46:19;;;;;;;2.37;1.50;;;10.20;68.40;;;;;;5055407;28;20175;-82
2021/04/01 14:48:55;;;;;;;3.27;1.60;;;10.20;66.60;;;;;;5055133;28;20187;-83
2021/04/01 14:51:21;;;;;;;4.30;1.73;;;10.10;66.40;;;;;;5054915;28;20171;-82
2021/04/01 14:53:50;;;;;;;2.37;1.43;;;9.90;67.40;;;;;;5055131;28;20195;-82
2021/04/01 14:56:19;;;;;;;5.70;1.70;;;10.20;67.30;;;;;;5037254;28;20264;-82
2021/04/01 14:58:48;;;;;;;2.87;1.47;;;10.30;65.80;;;;;;5054937;28;20195;-82
2021/04/01 15:01:19;;;;;;;4.27;1.70;;;10.20;66.30;;;;;;5055336;28;20195;-82